createdAt,value
2023-04-28T00:00:04.352Z,10.32
2023-04-28T00:05:26.256Z,11.80
2023-04-28T00:10:48.126Z,12.00
2023-04-28T00:16:09.953Z,12.15
2023-04-28T00:21:31.760Z,11.85
2023-04-28T00:26:53.646Z,12.02
2023-04-28T00:32:15.474Z,12.15
2023-04-28T00:37:38.224Z,12.43
2023-04-28T00:43:00.030Z,11.52
2023-04-28T00:48:22.010Z,11.48
2023-04-28T00:53:44.950Z,11.70
2023-04-28T00:59:06.762Z,13.30
2023-04-28T01:04:29.921Z,12.23
2023-04-28T01:09:51.882Z,12.77
2023-04-28T01:15:18.660Z,14.82
2023-04-28T01:20:40.486Z,14.98
2023-04-28T01:26:02.439Z,15.18
2023-04-28T01:31:24.299Z,18.88
2023-04-28T01:36:46.134Z,18.75
2023-04-28T01:42:07.978Z,16.05
2023-04-28T01:47:29.810Z,16.13
2023-04-28T01:52:51.620Z,16.13
2023-04-28T01:58:13.915Z,16.42
2023-04-28T02:03:35.917Z,17.27
2023-04-28T02:08:57.910Z,16.63
2023-04-28T02:14:19.730Z,17.30
2023-04-28T02:19:41.555Z,16.33
2023-04-28T02:25:03.569Z,16.90
2023-04-28T02:30:25.357Z,16.80
2023-04-28T02:35:47.153Z,17.27
2023-04-28T02:41:09.377Z,16.10
2023-04-28T02:46:31.369Z,16.67
2023-04-28T02:51:53.179Z,16.25
2023-04-28T02:57:15.015Z,15.95
2023-04-28T03:02:36.890Z,15.48
2023-04-28T03:07:59.009Z,16.38
2023-04-28T03:13:20.859Z,15.95
2023-04-28T03:18:42.688Z,16.63
2023-04-28T03:24:05.799Z,16.27
2023-04-28T03:29:27.782Z,16.20
2023-04-28T03:34:49.729Z,16.98
2023-04-28T03:40:11.812Z,16.65
2023-04-28T03:45:33.866Z,16.58
2023-04-28T03:50:55.701Z,17.00
2023-04-28T03:56:17.548Z,17.45
2023-04-28T04:01:39.368Z,17.17
2023-04-28T04:07:01.432Z,17.95
2023-04-28T04:12:12.983Z,18.05
2023-04-28T04:17:34.999Z,19.17
2023-04-28T04:22:56.881Z,17.77
2023-04-28T04:28:18.804Z,17.17
2023-04-28T04:33:40.680Z,17.80
2023-04-28T04:39:02.875Z,17.27
2023-04-28T04:44:24.697Z,16.77
2023-04-28T04:49:46.630Z,16.13
2023-04-28T04:55:08.867Z,16.83
2023-04-28T05:00:30.831Z,15.35
2023-04-28T05:05:52.709Z,14.63
2023-04-28T05:11:14.721Z,14.73
2023-04-28T05:16:36.607Z,14.30
2023-04-28T05:21:58.535Z,14.82
2023-04-28T05:27:20.396Z,15.45
2023-04-28T05:32:42.304Z,13.07
2023-04-28T05:38:04.163Z,13.57
2023-04-28T05:43:25.952Z,13.43
2023-04-28T05:48:47.796Z,12.48
2023-04-28T05:54:09.628Z,12.32
2023-04-28T05:59:31.555Z,12.95
2023-04-28T06:04:53.540Z,13.77
2023-04-28T06:10:15.513Z,11.05
2023-04-28T06:15:37.506Z,12.18
2023-04-28T06:20:59.415Z,12.60
2023-04-28T06:26:21.400Z,10.60
2023-04-28T06:31:43.375Z,10.75
2023-04-28T06:37:05.283Z,10.43
2023-04-28T06:42:27.220Z,9.02
2023-04-28T06:47:49.095Z,10.35
2023-04-28T06:53:10.935Z,8.20
2023-04-28T06:58:32.796Z,6.68
2023-04-28T07:03:54.783Z,7.35
2023-04-28T07:09:16.686Z,6.50
2023-04-28T07:14:38.503Z,7.65
2023-04-28T07:20:00.358Z,6.65
2023-04-28T07:25:22.274Z,5.80
2023-04-28T07:30:44.136Z,5.20
2023-04-28T07:36:06.470Z,4.90
2023-04-28T07:41:28.468Z,5.07
2023-04-28T07:46:52.133Z,4.55
2023-04-28T07:52:14.335Z,5.68
2023-04-28T07:57:36.358Z,3.50
2023-04-28T08:02:58.310Z,2.95
2023-04-28T08:08:20.459Z,2.75
2023-04-28T08:13:42.285Z,3.33
2023-04-28T08:19:04.213Z,2.83
2023-04-28T08:24:26.186Z,2.50
2023-04-28T08:29:48.053Z,3.17
2023-04-28T08:35:10.385Z,3.10
2023-04-28T08:40:32.294Z,2.63
2023-04-28T08:45:54.246Z,3.13
2023-04-28T08:51:23.681Z,6.32
2023-04-28T08:56:46.337Z,2.50
2023-04-28T09:02:09.144Z,2.72
2023-04-28T09:07:31.199Z,2.92
2023-04-28T09:12:54.856Z,2.53
2023-04-28T09:18:16.749Z,2.65
2023-04-28T09:23:48.728Z,2.60
2023-04-28T09:29:13.314Z,2.30
2023-04-28T09:34:54.940Z,3.05
2023-04-28T09:40:16.938Z,3.08
2023-04-28T09:45:39.969Z,2.40
2023-04-28T09:51:04.077Z,2.72
2023-04-28T09:56:28.658Z,2.92
2023-04-28T10:01:50.758Z,2.83
2023-04-28T10:07:14.075Z,3.50
2023-04-28T10:12:36.061Z,2.50
2023-04-28T10:17:59.330Z,2.97
2023-04-28T10:23:47.768Z,2.40
2023-04-28T10:29:09.766Z,2.75
2023-04-28T10:34:31.797Z,2.45
2023-04-28T10:40:31.153Z,3.40
2023-04-28T10:45:56.795Z,2.20
2023-04-28T10:51:19.432Z,2.75
2023-04-28T10:57:02.193Z,2.67
2023-04-28T11:02:50.641Z,2.13
2023-04-28T11:08:18.316Z,2.42
2023-04-28T11:13:41.924Z,2.78
2023-04-28T11:19:04.493Z,2.60
2023-04-28T11:24:28.165Z,2.00
2023-04-28T11:29:49.961Z,1.90
2023-04-28T11:35:11.770Z,2.10
2023-04-28T11:40:33.780Z,2.25
2023-04-28T11:45:55.755Z,2.22
2023-04-28T11:51:35.521Z,2.38
2023-04-28T11:56:58.348Z,2.30
2023-04-28T12:02:28.193Z,2.10
2023-04-28T12:07:50.403Z,2.33
2023-04-28T12:13:16.336Z,2.10
2023-04-28T12:18:38.192Z,2.00
2023-04-28T12:24:00.030Z,5.22
2023-04-28T12:29:41.533Z,3.17
2023-04-28T12:35:03.921Z,2.75
2023-04-28T12:40:26.088Z,2.60
2023-04-28T12:45:48.004Z,2.90
2023-04-28T12:51:09.951Z,2.65
2023-04-28T12:56:31.788Z,3.20
2023-04-28T13:01:53.640Z,3.10
2023-04-28T13:07:16.205Z,3.00
2023-04-28T13:12:38.063Z,2.60
2023-04-28T13:17:59.966Z,3.75
2023-04-28T13:23:22.027Z,3.70
2023-04-28T13:28:43.856Z,3.03
2023-04-28T13:34:05.704Z,3.08
2023-04-28T13:39:27.569Z,3.83
2023-04-28T13:44:49.541Z,3.88
2023-04-28T13:50:11.417Z,3.08
2023-04-28T13:55:33.378Z,3.42
2023-04-28T14:00:57.187Z,3.92
2023-04-28T14:06:19.301Z,3.38
2023-04-28T14:11:41.146Z,3.40
2023-04-28T14:17:03.141Z,4.47
2023-04-28T14:22:25.031Z,7.00
2023-04-28T14:27:50.791Z,3.97
2023-04-28T14:33:12.726Z,3.57
2023-04-28T14:38:34.639Z,3.95
2023-04-28T14:43:56.440Z,4.32
2023-04-28T14:49:18.286Z,3.60
2023-04-28T14:54:40.230Z,4.60
2023-04-28T15:00:03.370Z,4.55
2023-04-28T15:05:25.191Z,5.00
2023-04-28T15:10:47.054Z,5.10
2023-04-28T15:16:08.975Z,4.30
2023-04-28T15:21:30.837Z,3.85
2023-04-28T15:26:52.749Z,4.32
2023-04-28T15:32:14.580Z,3.97
2023-04-28T15:37:46.523Z,3.63
2023-04-28T15:43:08.411Z,4.30
2023-04-28T15:48:30.218Z,3.95
2023-04-28T15:53:52.309Z,4.35
2023-04-28T15:59:14.137Z,3.97
2023-04-28T16:04:36.077Z,4.35
2023-04-28T16:09:57.984Z,4.60
2023-04-28T16:15:20.587Z,4.65
2023-04-28T16:20:42.485Z,5.55
2023-04-28T16:26:04.412Z,5.10
2023-04-28T16:31:26.657Z,4.10
2023-04-28T16:36:48.515Z,5.03
2023-04-28T16:42:10.388Z,4.85
2023-04-28T16:47:32.203Z,4.68
2023-04-28T16:52:54.017Z,4.32
2023-04-28T16:58:15.907Z,5.30
2023-04-28T17:03:39.372Z,4.30
2023-04-28T17:09:01.232Z,5.32
2023-04-28T17:14:23.082Z,4.35
2023-04-28T17:19:44.920Z,4.82
2023-04-28T17:25:07.135Z,4.82
2023-04-28T17:30:28.966Z,5.07
2023-04-28T17:35:50.819Z,4.70
2023-04-28T17:41:12.658Z,3.58
2023-04-28T17:46:34.552Z,4.15
2023-04-28T17:51:56.388Z,4.15
2023-04-28T17:57:18.246Z,3.75
2023-04-28T18:02:40.233Z,4.13
2023-04-28T18:08:02.939Z,3.90
2023-04-28T18:13:24.806Z,4.15
2023-04-28T18:18:46.788Z,4.38
2023-04-28T18:24:08.642Z,4.07
2023-04-28T18:29:30.458Z,5.13
2023-04-28T18:34:52.434Z,4.53
2023-04-28T18:40:14.451Z,5.40
2023-04-28T18:45:37.771Z,4.90
2023-04-28T18:51:00.826Z,5.00
2023-04-28T18:56:22.751Z,5.22
2023-04-28T19:01:44.702Z,5.50
2023-04-28T19:07:06.658Z,6.00
2023-04-28T19:12:28.510Z,5.40
2023-04-28T19:17:50.557Z,5.82
2023-04-28T19:23:12.483Z,6.32
2023-04-28T19:28:34.594Z,6.05
2023-04-28T19:33:57.826Z,6.38
2023-04-28T19:39:19.767Z,7.65
2023-04-28T19:44:41.743Z,7.13
2023-04-28T19:50:03.783Z,7.00
2023-04-28T19:55:25.749Z,7.57
2023-04-28T20:00:47.633Z,8.13
2023-04-28T20:06:15.240Z,6.85
2023-04-28T20:11:37.075Z,25.52
2023-04-28T20:16:59.461Z,7.60
2023-04-28T20:22:21.291Z,7.80
2023-04-28T20:27:43.150Z,8.02
2023-04-28T20:33:04.996Z,8.52
2023-04-28T20:38:29.033Z,7.65
2023-04-28T20:43:50.853Z,8.77
2023-04-28T20:49:12.751Z,8.27
2023-04-28T20:54:35.502Z,9.10
2023-04-28T20:59:57.332Z,8.32
2023-04-28T21:05:19.348Z,9.93
2023-04-28T21:10:41.234Z,10.05
2023-04-28T21:16:03.081Z,10.07
2023-04-28T21:21:24.905Z,9.60
2023-04-28T21:26:46.700Z,9.60
2023-04-28T21:32:08.585Z,10.30
2023-04-28T21:37:31.309Z,10.02
2023-04-28T21:42:53.122Z,10.13
2023-04-28T21:48:15.026Z,10.85
2023-04-28T21:53:36.873Z,10.20
2023-04-28T21:58:58.786Z,15.88
2023-04-28T22:04:21.039Z,10.60
2023-04-28T22:09:42.936Z,10.43
2023-04-28T22:15:05.384Z,10.50
2023-04-28T22:20:27.282Z,9.60
2023-04-28T22:25:49.988Z,10.80
2023-04-28T22:31:11.845Z,10.25
2023-04-28T22:36:33.680Z,11.55
2023-04-28T22:41:55.612Z,10.90
2023-04-28T22:47:17.473Z,10.77
2023-04-28T22:52:39.391Z,11.10
2023-04-28T22:58:01.293Z,10.15
2023-04-28T23:03:23.265Z,10.82
2023-04-28T23:08:45.151Z,10.45
2023-04-28T23:14:06.994Z,11.27
2023-04-28T23:19:28.881Z,10.98
2023-04-28T23:24:50.699Z,10.15
2023-04-28T23:30:13.092Z,10.55
2023-04-28T23:35:34.908Z,10.70
2023-04-28T23:40:56.751Z,9.82
2023-04-28T23:46:18.669Z,9.93
2023-04-28T23:51:40.511Z,10.73
2023-04-28T23:57:02.384Z,10.50
